Time;durP1;ratioP1;P1;durP2;ratioP2;P2;SDS_P1;SDS_P2;PMS_P1;PMS_P2;Temp;Humidity;BMP_temperature;BMP_pressure;BME280_temperature;BME280_humidity;BME280_pressure;Samples;Min_cycle;Max_cycle;Signal;HPM_P1;HPM_P2
2023/07/02 00:00:21;;;;;;;2.13;1.92;;;;;;;16.03;100.00;100475.50;1056586;28;20050;-38
2023/07/02 00:00:54;;;;;;;4.47;2.00;;;;;;;16.01;100.00;100472.28;1056728;28;20631;-37
2023/07/02 00:01:26;;;;;;;2.15;1.95;;;;;;;16.03;100.00;100475.50;1053594;28;20050;-38
2023/07/02 00:01:58;;;;;;;3.28;1.90;;;;;;;15.91;100.00;100477.59;1056499;28;20035;-38
2023/07/02 00:02:29;;;;;;;3.60;1.77;;;;;;;15.92;100.00;100468.47;1056807;28;20538;-38
2023/07/02 00:03:01;;;;;;;4.25;1.98;;;;;;;16.03;100.00;100472.81;1054371;28;20036;-38
2023/07/02 00:03:33;;;;;;;2.35;1.60;;;;;;;16.02;100.00;100473.88;1056520;28;20047;-37
2023/07/02 00:04:05;;;;;;;3.88;2.00;;;;;;;16.03;100.00;100464.75;1056633;28;20040;-38
2023/07/02 00:04:36;;;;;;;5.18;2.60;;;;;;;16.12;100.00;100463.19;1056878;28;20048;-38
2023/07/02 00:05:08;;;;;;;6.40;1.83;;;;;;;16.12;100.00;100463.19;1055891;28;20075;-38
2023/07/02 00:05:40;;;;;;;2.85;1.98;;;;;;;16.10;100.00;100457.25;1056864;28;20493;-38
2023/07/02 00:06:11;;;;;;;2.53;1.80;;;;;;;16.13;100.00;100454.03;1056673;28;20040;-37
2023/07/02 00:06:43;;;;;;;2.70;1.92;;;;;;;16.09;100.00;100461.03;1056674;28;20044;-37
2023/07/02 00:07:15;;;;;;;1.88;1.70;;;;;;;16.07;100.00;100460.47;1056747;28;20043;-38
2023/07/02 00:07:46;;;;;;;4.55;2.17;;;;;;;16.11;100.00;100461.56;1056911;28;20036;-37
2023/07/02 00:08:18;;;;;;;2.40;2.13;;;;;;;16.06;100.00;100464.22;1056285;28;20122;-38
2023/07/02 00:08:50;;;;;;;3.45;2.10;;;;;;;16.09;100.00;100469.09;1056477;28;20120;-37
2023/07/02 00:09:21;;;;;;;4.88;2.47;;;;;;;16.13;100.00;100459.41;1051969;28;20521;-38
2023/07/02 00:09:54;;;;;;;2.50;2.30;;;;;;;16.14;100.00;100461.03;1052815;28;20039;-41
2023/07/02 00:10:25;;;;;;;2.50;2.10;;;;;;;16.18;100.00;100462.16;1057273;28;20038;-45
2023/07/02 00:10:57;;;;;;;3.97;2.42;;;;;;;16.14;100.00;100461.03;1056450;28;20136;-45
2023/07/02 00:11:29;;;;;;;2.90;1.83;;;;;;;16.07;100.00;100455.09;1056668;28;20489;-45
2023/07/02 00:12:00;;;;;;;4.55;2.13;;;;;;;16.01;100.00;100461.53;1056801;28;20060;-45
2023/07/02 00:12:32;;;;;;;3.45;2.38;;;;;;;16.09;100.00;100463.72;1056527;28;20297;-44
2023/07/02 00:13:04;;;;;;;3.85;2.45;;;;;;;16.24;100.00;100465.66;1055737;28;20051;-45
2023/07/02 00:13:35;;;;;;;2.42;2.10;;;;;;;16.19;100.00;100450.34;1056149;28;20408;-45
2023/07/02 00:14:08;;;;;;;4.38;2.38;;;;;;;16.15;100.00;100454.59;1056581;28;20040;-44
2023/07/02 00:14:39;;;;;;;3.72;2.50;;;;;;;16.19;100.00;100458.41;1056153;28;20036;-44
2023/07/02 00:15:11;;;;;;;2.63;1.95;;;;;;;16.18;100.00;100456.78;1056504;28;20511;-46
2023/07/02 00:15:43;;;;;;;3.70;1.98;;;;;;;16.14;100.00;100458.34;1057013;28;20047;-45
2023/07/02 00:16:15;;;;;;;2.65;1.90;;;;;;;16.15;100.00;100451.91;1056671;28;20500;-49
2023/07/02 00:16:46;;;;;;;3.38;2.28;;;;;;;16.09;100.00;100461.03;1056586;27;20046;-47
2023/07/02 00:17:18;;;;;;;4.65;3.38;;;;;;;16.08;100.00;100454.03;1056626;28;20170;-46
2023/07/02 00:17:50;;;;;;;3.63;2.50;;;;;;;16.06;100.00;100462.34;1056561;28;20046;-47
2023/07/02 00:18:22;;;;;;;4.35;2.75;;;;;;;16.04;100.00;100455.63;1056513;28;20061;-46
2023/07/02 00:18:53;;;;;;;4.50;3.00;;;;;;;16.07;100.00;100461.28;1056853;28;20035;-48
2023/07/02 00:19:25;;;;;;;7.72;2.90;;;;;;;16.11;100.00;100456.19;1053982;28;20499;-46
2023/07/02 00:19:57;;;;;;;4.45;2.50;;;;;;;16.06;100.00;100464.22;1056649;27;20043;-44
2023/07/02 00:20:30;;;;;;;6.45;2.85;;;;;;;16.01;100.00;100461.53;1056806;28;20047;-45
2023/07/02 00:21:04;;;;;;;5.55;2.45;;;;;;;16.01;100.00;100464.22;1056723;27;20039;-45
2023/07/02 00:21:37;;;;;;;2.25;1.92;;;;;;;16.07;100.00;100460.47;1056501;28;20202;-45
2023/07/02 00:22:09;;;;;;;5.22;2.40;;;;;;;16.05;100.00;100457.25;1056478;28;20058;-45
2023/07/02 00:22:44;;;;;;;3.83;2.53;;;;;;;15.98;100.00;100457.50;1056795;28;20493;-48
2023/07/02 00:23:16;;;;;;;3.08;2.53;;;;;;;16.04;100.00;100455.63;1056159;28;20032;-46
2023/07/02 00:23:47;;;;;;;5.53;2.20;;;;;;;16.09;100.00;100452.97;1056350;28;20043;-44
2023/07/02 00:24:19;;;;;;;3.95;2.95;;;;;;;16.08;100.00;100452.16;1056417;28;20472;-47
2023/07/02 00:24:51;;;;;;;4.65;2.35;;;;;;;15.92;100.00;100452.34;1056178;28;20094;-44
2023/07/02 00:25:23;;;;;;;4.35;2.03;;;;;;;15.95;100.00;100457.22;1056256;28;20043;-46
2023/07/02 00:25:55;;;;;;;2.65;2.45;;;;;;;15.98;100.00;100451.31;1056906;27;20489;-46
2023/07/02 00:26:28;;;;;;;4.07;2.80;;;;;;;16.01;100.00;100454.28;1056490;28;20046;-45
2023/07/02 00:26:59;;;;;;;6.40;2.70;;;;;;;16.05;100.00;100452.69;1056473;27;20176;-44
2023/07/02 00:27:31;;;;;;;3.75;2.67;;;;;;;16.15;100.00;100451.09;1056600;28;20097;-45
2023/07/02 00:28:03;;;;;;;5.20;3.00;;;;;;;16.10;100.00;100453.78;1056439;28;20556;-47
2023/07/02 00:28:34;;;;;;;3.10;2.80;;;;;;;16.12;100.00;100455.13;1057238;28;20051;-39
2023/07/02 00:29:07;;;;;;;6.40;2.72;;;;;;;16.10;100.00;100457.25;1056502;28;20054;-44
2023/07/02 00:29:39;;;;;;;3.20;2.88;;;;;;;16.04;100.00;100456.44;1056597;28;20035;-47
2023/07/02 00:30:11;;;;;;;3.85;2.50;;;;;;;16.07;100.00;100455.09;1056252;28;20043;-47
2023/07/02 00:30:42;;;;;;;2.45;2.22;;;;;;;15.98;100.00;100451.31;1056312;28;20043;-49
2023/07/02 00:31:14;;;;;;;6.75;2.60;;;;;;;16.03;100.00;100449.44;1056830;27;20040;-47
2023/07/02 00:31:46;;;;;;;5.75;2.85;;;;;;;16.11;100.00;100452.69;1056389;28;20039;-45
2023/07/02 00:32:17;;;;;;;2.63;2.22;;;;;;;16.08;100.00;100443.28;1056444;28;20043;-44
2023/07/02 00:32:49;;;;;;;3.80;3.13;;;;;;;16.14;100.00;100447.59;1056248;28;20035;-44
2023/07/02 00:33:20;;;;;;;4.97;2.65;;;;;;;16.17;100.00;100454.34;1055990;28;20134;-44
2023/07/02 00:33:52;;;;;;;4.93;2.50;;;;;;;16.08;100.00;100443.28;1051965;28;20043;-44
2023/07/02 00:34:24;;;;;;;2.72;2.38;;;;;;;16.07;100.00;100450.53;1052250;28;20131;-46
2023/07/02 00:34:56;;;;;;;4.90;3.63;;;;;;;16.16;100.00;100453.56;1048148;28;20131;-45
2023/07/02 00:35:28;;;;;;;4.05;3.20;;;;;;;16.15;100.00;100443.03;1052561;28;20043;-46
2023/07/02 00:36:00;;;;;;;8.38;4.18;;;;;;;16.12;100.00;100446.25;1056365;28;20063;-44
2023/07/02 00:36:32;;;;;;;4.40;2.97;;;;;;;16.10;100.00;100449.19;1056309;28;20040;-42
2023/07/02 00:37:04;;;;;;;5.65;3.10;;;;;;;16.14;100.00;100455.66;1056609;28;20382;-46
2023/07/02 00:37:36;;;;;;;4.30;3.10;;;;;;;16.20;100.00;100448.47;1056316;28;20180;-45
2023/07/02 00:38:07;;;;;;;5.47;3.20;;;;;;;16.19;100.00;100447.66;1056131;28;20088;-47
2023/07/02 00:38:42;;;;;;;5.40;3.28;;;;;;;16.16;100.00;100448.19;1056093;28;20039;-44
2023/07/02 00:39:13;;;;;;;4.53;2.97;;;;;;;16.17;100.00;100446.31;1056151;28;20035;-49
2023/07/02 00:39:45;;;;;;;4.70;3.13;;;;;;;16.17;100.00;100454.34;1055894;28;20162;-46
2023/07/02 00:40:17;;;;;;;6.63;3.15;;;;;;;16.16;100.00;100445.50;1056190;28;20054;-49
2023/07/02 00:40:48;;;;;;;6.38;3.00;;;;;;;16.14;100.00;100460.22;1056381;28;20445;-46
2023/07/02 00:41:20;;;;;;;6.15;3.33;;;;;;;16.14;100.00;100455.66;1056493;28;20039;-45
2023/07/02 00:41:52;;;;;;;10.93;3.10;;;;;;;16.20;100.00;100453.84;1056132;28;20051;-46
2023/07/02 00:42:23;;;;;;;8.88;3.40;;;;;;;16.21;100.00;100453.56;1055951;28;20028;-44
2023/07/02 00:42:56;;;;;;;3.47;3.08;;;;;;;16.13;100.00;100459.41;1056129;28;20052;-47
2023/07/02 00:43:28;;;;;;;7.90;3.30;;;;;;;16.19;100.00;100458.41;1056022;28;20063;-44
2023/07/02 00:43:59;;;;;;;4.40;2.97;;;;;;;16.19;100.00;100449.53;1056129;28;20555;-45
2023/07/02 00:44:31;;;;;;;6.82;3.38;;;;;;;16.05;100.00;100462.63;1052488;28;20052;-46
2023/07/02 00:45:04;;;;;;;4.82;3.38;;;;;;;16.14;100.00;100455.66;1052119;28;20533;-45
2023/07/02 00:45:35;;;;;;;9.15;3.78;;;;;;;16.18;100.00;100456.78;1052009;28;20522;-47
2023/07/02 00:46:07;;;;;;;9.70;3.58;;;;;;;16.23;100.00;100454.13;1052454;28;20048;-44
2023/07/02 00:46:39;;;;;;;8.95;3.75;;;;;;;16.23;100.00;100464.06;1057417;28;20093;-46
2023/07/02 00:47:11;;;;;;;8.40;3.05;;;;;;;16.20;100.00;100465.38;1056718;27;20062;-38
2023/07/02 00:47:43;;;;;;;11.32;3.92;;;;;;;16.22;100.00;100470.50;1051775;28;20501;-38
2023/07/02 00:48:15;;;;;;;6.28;4.05;;;;;;;16.26;100.00;100477.78;1052513;28;20048;-48
2023/07/02 00:48:48;;;;;;;5.25;3.00;;;;;;;16.24;100.00;100477.22;1052457;28;20321;-37
2023/07/02 00:49:20;;;;;;;9.77;4.10;;;;;;;16.31;100.00;100467.03;1052675;28;20051;-38
2023/07/02 00:49:51;;;;;;;5.70;3.58;;;;;;;16.30;100.00;100478.06;1051560;28;20402;-38
2023/07/02 00:50:23;;;;;;;5.72;3.65;;;;;;;16.29;100.00;100479.13;1052031;28;20036;-38
2023/07/02 00:50:55;;;;;;;7.72;3.03;;;;;;;16.29;100.00;100474.56;1048302;28;20389;-38
2023/07/02 00:51:27;;;;;;;7.32;3.53;;;;;;;16.27;100.00;100481.25;1048266;28;20045;-38
2023/07/02 00:51:59;;;;;;;14.20;4.63;;;;;;;16.31;100.00;100483.16;1056153;28;20066;-37
2023/07/02 00:52:30;;;;;;;7.78;3.05;;;;;;;16.28;100.00;100483.69;1052531;28;20116;-38
2023/07/02 00:53:02;;;;;;;9.35;3.50;;;;;;;16.23;100.00;100486.34;1052142;28;20122;-38
2023/07/02 00:53:34;;;;;;;6.13;3.40;;;;;;;16.28;100.00;100489.06;1045494;28;20123;-38
2023/07/02 00:54:05;;;;;;;9.10;3.88;;;;;;;16.17;100.00;100486.59;1048362;28;20117;-37
2023/07/02 00:54:37;;;;;;;9.82;3.95;;;;;;;16.09;100.00;100490.56;1052078;28;20079;-37
2023/07/02 00:55:09;;;;;;;8.68;3.85;;;;;;;16.02;100.00;100484.63;1052622;28;20036;-37
2023/07/02 00:55:40;;;;;;;10.02;4.82;;;;;;;16.01;100.00;100483.03;1055950;28;20044;-38
2023/07/02 00:56:12;;;;;;;9.20;4.00;;;;;;;15.91;100.00;100483.78;1051868;28;20055;-37
2023/07/02 00:56:45;;;;;;;10.77;4.82;;;;;;;15.89;100.00;100479.75;1052497;28;20040;-37
2023/07/02 00:57:19;;;;;;;8.55;4.13;;;;;;;15.84;100.00;100485.88;1056057;28;20049;-38
2023/07/02 00:57:51;;;;;;;10.75;4.85;;;;;;;15.73;100.00;100487.69;1056291;28;20043;-37
2023/07/02 00:58:22;;;;;;;7.97;5.13;;;;;;;15.83;100.00;100486.13;1056538;28;20046;-38
2023/07/02 00:58:58;;;;;;;10.90;3.90;;;;;;;15.67;100.00;100483.38;1055888;28;20047;-37
2023/07/02 00:59:34;;;;;;;11.23;4.93;;;;;;;15.65;100.00;100488.19;1060713;27;20047;-37
2023/07/02 01:00:07;;;;;;;11.32;5.35;;;;;;;15.64;100.00;100489.25;1060475;27;20058;-37
2023/07/02 01:00:39;;;;;;;8.10;4.13;;;;;;;15.53;100.00;100484.03;1059784;27;20366;-37
2023/07/02 01:01:11;;;;;;;10.23;4.97;;;;;;;15.48;100.00;100484.78;1056407;28;20044;-38
2023/07/02 01:01:49;;;;;;;11.73;4.60;;;;;;;15.34;100.00;100479.06;1055015;28;20036;-38
2023/07/02 01:02:25;;;;;;;13.30;4.97;;;;;;;15.28;100.00;100495.34;1058695;27;20118;-38
2023/07/02 01:02:59;;;;;;;7.57;3.95;;;;;;;15.19;100.00;100494.22;1055824;28;20144;-39
2023/07/02 01:03:32;;;;;;;12.98;6.13;;;;;;;15.28;100.00;100490.00;1056171;28;20485;-40
2023/07/02 01:04:15;;;;;;;10.80;4.57;;;;;;;15.17;100.00;100483.75;1056686;28;20524;-41
2023/07/02 01:04:49;;;;;;;15.52;6.38;;;;;;;15.09;100.00;100471.59;1057054;28;20044;-49
2023/07/02 01:05:23;;;;;;;13.35;4.55;;;;;;;15.07;100.00;100479.09;1056210;28;20507;-46
2023/07/02 01:05:55;;;;;;;7.30;3.90;;;;;;;15.01;100.00;100469.38;1051886;28;20060;-46
2023/07/02 01:06:31;;;;;;;11.15;4.50;;;;;;;15.02;100.00;100479.03;1051703;28;20044;-49
2023/07/02 01:07:08;;;;;;;8.65;4.30;;;;;;;15.06;100.00;100472.09;1053429;28;20040;-48
2023/07/02 01:07:40;;;;;;;8.32;4.35;;;;;;;15.01;100.00;100482.78;1055880;28;20405;-48
2023/07/02 01:08:11;;;;;;;11.60;4.90;;;;;;;15.04;100.00;100473.41;1052028;28;20065;-48
2023/07/02 01:08:43;;;;;;;12.45;4.97;;;;;;;15.08;100.00;100479.91;1048036;28;20047;-44
2023/07/02 01:09:15;;;;;;;11.27;4.70;;;;;;;15.07;100.00;100473.75;1047806;28;20041;-45
2023/07/02 01:09:46;;;;;;;11.85;4.65;;;;;;;15.08;100.00;100475.34;1052272;28;20040;-44
2023/07/02 01:10:18;;;;;;;7.65;3.83;;;;;;;14.86;100.00;100477.28;1056156;28;20043;-50
2023/07/02 01:10:50;;;;;;;7.47;3.42;;;;;;;14.98;100.00;100480.59;1056662;28;20393;-49
2023/07/02 01:11:27;;;;;;;7.88;4.15;;;;;;;14.84;100.00;100484.78;1051851;28;20036;-47
2023/07/02 01:12:00;;;;;;;8.75;4.30;;;;;;;14.94;100.00;100476.81;1051600;28;20043;-45
2023/07/02 01:12:32;;;;;;;13.57;5.45;;;;;;;15.00;100.00;100486.53;1047965;28;20056;-44
2023/07/02 01:13:10;;;;;;;6.57;4.40;;;;;;;14.95;100.00;100483.81;1048951;28;20048;-46
2023/07/02 01:13:43;;;;;;;9.85;4.30;;;;;;;14.89;100.00;100486.69;1047398;28;20037;-47
2023/07/02 01:14:22;;;;;;;6.88;4.28;;;;;;;14.95;100.00;100486.47;1050912;28;20040;-45
2023/07/02 01:14:56;;;;;;;10.48;4.78;;;;;;;14.98;100.00;100483.28;1051963;28;20040;-44
2023/07/02 01:15:27;;;;;;;9.38;4.40;;;;;;;14.99;100.00;100487.59;1060180;27;20039;-46
2023/07/02 01:15:59;;;;;;;8.25;4.15;;;;;;;15.01;100.00;100490.03;1064619;27;20583;-48
2023/07/02 01:16:32;;;;;;;7.28;4.50;;;;;;;14.99;100.00;100490.28;1060567;27;20062;-47
2023/07/02 01:17:05;;;;;;;7.63;4.00;;;;;;;14.97;100.00;100487.03;1054434;28;20050;-46
2023/07/02 01:17:41;;;;;;;12.98;5.10;;;;;;;14.89;100.00;100487.50;1047715;28;20051;-47
2023/07/02 01:18:14;;;;;;;10.07;4.00;;;;;;;14.94;100.00;100487.56;1047835;28;20048;-44
2023/07/02 01:18:46;;;;;;;10.82;4.65;;;;;;;14.95;100.00;100491.84;1052394;28;20516;-45
2023/07/02 01:19:51;;;;;;;8.00;4.10;;;;;;;15.03;100.00;100491.38;1060296;27;20114;-46
2023/07/02 01:20:24;;;;;;;7.13;4.38;;;;;;;14.95;100.00;100497.22;1061161;27;20035;-37
2023/07/02 01:20:56;;;;;;;9.25;5.07;;;;;;;14.99;100.00;100495.63;1060724;27;20045;-38
2023/07/02 01:21:27;;;;;;;7.78;5.10;;;;;;;15.02;100.00;100500.50;1056042;28;20439;-38
2023/07/02 01:22:00;;;;;;;9.35;3.97;;;;;;;14.97;100.00;100495.09;1056185;28;20040;-38
2023/07/02 01:22:33;;;;;;;9.75;5.75;;;;;;;14.94;100.00;100490.22;1052435;28;20134;-38
2023/07/02 01:23:07;;;;;;;19.15;4.20;;;;;;;14.83;100.00;100493.88;1051695;28;20028;-37
2023/07/02 01:23:40;;;;;;;7.65;4.22;;;;;;;14.68;100.00;100491.03;1051836;28;20051;-37
2023/07/02 01:24:14;;;;;;;7.38;3.97;;;;;;;14.75;100.00;100488.94;1052981;28;20046;-38
2023/07/02 01:24:49;;;;;;;12.07;4.55;;;;;;;14.80;100.00;100499.75;1053738;28;20048;-46
2023/07/02 01:25:24;;;;;;;6.50;4.20;;;;;;;14.88;100.00;100501.16;1049893;28;20037;-46
2023/07/02 01:25:58;;;;;;;6.20;3.95;;;;;;;14.89;100.00;100498.22;1051622;28;20040;-43
2023/07/02 01:26:33;;;;;;;9.88;4.80;;;;;;;14.84;100.00;100500.88;1049619;28;20048;-44
2023/07/02 01:27:06;;;;;;;10.95;5.38;;;;;;;14.83;100.00;100500.06;1053638;28;20043;-46
2023/07/02 01:27:38;;;;;;;13.38;4.32;;;;;;;14.63;100.00;100504.38;1051929;28;20059;-44
2023/07/02 01:28:13;;;;;;;11.07;5.15;;;;;;;14.59;100.00;100503.28;1057616;28;20053;-45
2023/07/02 01:28:45;;;;;;;11.25;4.20;;;;;;;14.72;100.00;100508.22;1059828;28;20605;-45
2023/07/02 01:29:18;;;;;;;8.88;4.18;;;;;;;14.56;100.00;100501.09;1060381;28;20047;-45
2023/07/02 01:29:51;;;;;;;11.93;5.38;;;;;;;14.38;100.00;100500.31;1060829;27;20043;-44
2023/07/02 01:30:22;;;;;;;10.00;5.43;;;;;;;14.67;100.00;100505.50;1060499;27;20043;-45
2023/07/02 01:30:54;;;;;;;9.65;4.80;;;;;;;14.73;100.00;100507.16;1060227;28;20044;-47
2023/07/02 01:31:26;;;;;;;6.65;4.03;;;;;;;14.70;100.00;100503.13;1059992;28;20489;-45
2023/07/02 01:31:57;;;;;;;10.23;5.15;;;;;;;14.63;100.00;100509.75;1060191;28;20040;-45
2023/07/02 01:32:29;;;;;;;10.40;4.28;;;;;;;14.76;100.00;100499.41;1060274;28;20039;-46
2023/07/02 01:33:01;;;;;;;6.82;4.07;;;;;;;14.81;100.00;100504.88;1060355;28;20420;-45
2023/07/02 01:33:32;;;;;;;11.40;4.68;;;;;;;14.77;100.00;100500.22;1057764;28;20043;-44
2023/07/02 01:34:04;;;;;;;8.90;4.47;;;;;;;14.81;100.00;100504.06;1056206;28;20031;-44
2023/07/02 01:34:36;;;;;;;10.27;5.43;;;;;;;14.73;100.00;100504.47;1052497;28;20380;-44
2023/07/02 01:35:08;;;;;;;9.32;4.70;;;;;;;14.80;100.00;100500.56;1051745;28;20097;-44
2023/07/02 01:35:41;;;;;;;9.48;4.93;;;;;;;14.71;100.00;100506.59;1051904;28;20086;-44
2023/07/02 01:36:13;;;;;;;12.23;5.75;;;;;;;14.47;100.00;100506.06;1052293;28;20047;-45
2023/07/02 01:36:45;;;;;;;5.38;3.80;;;;;;;14.53;100.00;100511.25;1052766;28;20055;-43
2023/07/02 01:37:19;;;;;;;11.75;4.35;;;;;;;14.63;100.00;100509.75;1056284;28;20073;-44
2023/07/02 01:37:51;;;;;;;7.43;4.15;;;;;;;14.63;100.00;100515.91;1051477;28;20134;-43
2023/07/02 01:38:22;;;;;;;10.95;5.07;;;;;;;14.55;100.00;100518.22;1052949;28;20478;-44
2023/07/02 01:38:54;;;;;;;7.63;4.28;;;;;;;14.62;100.00;100514.28;1056049;28;20035;-47
2023/07/02 01:39:26;;;;;;;8.25;4.72;;;;;;;14.64;100.00;100514.03;1055381;28;20043;-44
2023/07/02 01:39:57;;;;;;;8.27;4.50;;;;;;;14.72;100.00;100508.22;1056605;28;20085;-44
2023/07/02 01:40:32;;;;;;;10.52;4.55;;;;;;;14.72;100.00;100510.91;1056544;28;20044;-39
2023/07/02 01:41:03;;;;;;;9.18;4.35;;;;;;;14.77;100.00;100508.28;1056722;28;20036;-37
2023/07/02 01:41:41;;;;;;;9.38;4.78;;;;;;;14.50;100.00;100510.91;1056579;28;20050;-37
2023/07/02 01:42:17;;;;;;;8.60;4.63;;;;;;;14.57;100.00;100506.19;1056218;28;20129;-46
2023/07/02 01:42:49;;;;;;;9.90;4.75;;;;;;;14.61;100.00;100507.31;1051822;28;20514;-45
2023/07/02 01:43:20;;;;;;;13.13;5.10;;;;;;;14.65;100.00;100507.63;1052066;28;20098;-44
2023/07/02 01:43:53;;;;;;;7.50;5.07;;;;;;;14.66;100.00;100519.97;1048159;28;20063;-46
2023/07/02 01:44:25;;;;;;;9.32;4.20;;;;;;;14.56;100.00;100511.81;1052994;28;20040;-45
2023/07/02 01:44:56;;;;;;;7.43;4.80;;;;;;;14.69;100.00;100514.91;1056261;28;20414;-37
2023/07/02 01:45:28;;;;;;;10.07;4.75;;;;;;;14.67;100.00;100508.97;1056577;28;20521;-37
2023/07/02 01:46:01;;;;;;;11.48;5.93;;;;;;;14.70;100.00;100513.03;1056622;28;20039;-38
2023/07/02 01:46:33;;;;;;;7.88;4.32;;;;;;;14.63;100.00;100512.44;1056394;28;20055;-37
2023/07/02 01:47:05;;;;;;;9.63;4.68;;;;;;;14.74;100.00;100511.47;1055798;28;20173;-38
2023/07/02 01:47:36;;;;;;;14.05;6.38;;;;;;;14.70;100.00;100510.34;1056185;28;20052;-37
2023/07/02 01:48:08;;;;;;;9.43;5.00;;;;;;;14.75;100.00;100511.22;1053585;28;20055;-37
2023/07/02 01:48:40;;;;;;;7.95;5.07;;;;;;;14.66;100.00;100510.03;1055989;28;20504;-37
2023/07/02 01:49:11;;;;;;;8.63;5.28;;;;;;;14.70;100.00;100510.34;1056049;28;20027;-38
2023/07/02 01:49:43;;;;;;;10.43;5.85;;;;;;;14.67;100.00;100513.53;1049475;28;20045;-38
2023/07/02 01:50:15;;;;;;;8.40;5.15;;;;;;;14.72;100.00;100513.59;1051850;28;20093;-37
2023/07/02 01:50:46;;;;;;;8.18;5.30;;;;;;;14.75;100.00;100513.09;1051754;28;20486;-38
2023/07/02 01:51:18;;;;;;;8.93;4.70;;;;;;;14.78;100.00;100508.03;1052495;28;20044;-38
2023/07/02 01:51:51;;;;;;;14.02;5.47;;;;;;;14.75;100.00;100515.75;1056346;28;20043;-38
2023/07/02 01:52:23;;;;;;;13.52;5.47;;;;;;;14.78;100.00;100515.25;1056093;28;20036;-38
2023/07/02 01:52:54;;;;;;;11.50;5.22;;;;;;;14.79;100.00;100519.56;1056475;28;20055;-38
2023/07/02 01:53:26;;;;;;;8.65;5.38;;;;;;;14.78;100.00;100512.56;1056124;28;20343;-37
2023/07/02 01:53:57;;;;;;;7.78;5.03;;;;;;;14.65;100.00;100518.34;1056212;28;20058;-38
2023/07/02 01:54:31;;;;;;;7.63;5.20;;;;;;;14.61;100.00;100514.53;1056669;28;20471;-37
2023/07/02 01:55:03;;;;;;;10.85;5.07;;;;;;;14.62;100.00;100513.47;1056351;28;20428;-38
2023/07/02 01:55:37;;;;;;;10.35;5.80;;;;;;;14.72;100.00;100524.31;1055105;28;20180;-37
2023/07/02 01:56:09;;;;;;;10.00;4.63;;;;;;;14.70;100.00;100521.06;1056257;28;20521;-37
2023/07/02 01:56:40;;;;;;;9.23;4.13;;;;;;;14.52;100.00;100520.34;1051868;28;20046;-37
2023/07/02 01:57:12;;;;;;;7.43;4.47;;;;;;;14.61;100.00;100522.59;1047893;28;20040;-37
2023/07/02 01:57:44;;;;;;;6.65;4.68;;;;;;;14.45;100.00;100514.34;1047596;28;20049;-38
2023/07/02 01:58:15;;;;;;;11.63;5.25;;;;;;;14.57;100.00;100516.91;1049696;28;20545;-37
2023/07/02 01:58:47;;;;;;;11.68;5.75;;;;;;;14.61;100.00;100522.59;1052171;28;20047;-37
2023/07/02 01:59:19;;;;;;;14.13;5.28;;;;;;;14.68;100.00;100523.19;1056291;28;20464;-38
2023/07/02 01:59:51;;;;;;;10.35;4.57;;;;;;;14.69;100.00;100519.47;1055560;28;20497;-37
2023/07/02 02:00:24;;;;;;;9.30;5.28;;;;;;;14.68;100.00;100512.47;1052188;28;20036;-37
2023/07/02 02:00:55;;;;;;;8.95;5.30;;;;;;;14.61;100.00;100517.22;1055986;28;20180;-42
2023/07/02 02:01:27;;;;;;;7.72;4.90;;;;;;;14.61;100.00;100518.03;1051956;28;20036;-37
2023/07/02 02:01:59;;;;;;;9.52;5.30;;;;;;;14.63;100.00;100525.81;1051642;28;20417;-38
2023/07/02 02:02:33;;;;;;;16.67;5.30;;;;;;;14.55;100.00;100518.22;1052709;28;20117;-42
2023/07/02 02:03:05;;;;;;;11.25;5.32;;;;;;;14.66;100.00;100522.63;1053314;28;20044;-45
2023/07/02 02:03:38;;;;;;;8.38;5.65;;;;;;;14.65;100.00;100523.69;1056075;28;20116;-44
2023/07/02 02:04:11;;;;;;;8.80;6.00;;;;;;;14.61;100.00;100523.41;1051790;28;20489;-44
2023/07/02 02:04:43;;;;;;;18.30;5.75;;;;;;;14.61;100.00;100523.41;1044496;28;20049;-41
2023/07/02 02:05:17;;;;;;;9.40;5.22;;;;;;;14.58;100.00;100518.53;1047879;28;20174;-38
2023/07/02 02:05:50;;;;;;;7.82;5.47;;;;;;;14.61;100.00;100522.59;1044329;28;20606;-38
2023/07/02 02:06:23;;;;;;;8.70;5.28;;;;;;;14.61;100.00;100528.75;1049425;28;20552;-38
2023/07/02 02:06:55;;;;;;;10.20;5.90;;;;;;;14.62;100.00;100525.00;1056354;28;20044;-37
2023/07/02 02:07:27;;;;;;;12.43;5.13;;;;;;;14.52;100.00;100523.03;1056318;28;20115;-38
2023/07/02 02:07:58;;;;;;;11.93;5.72;;;;;;;14.55;100.00;100524.41;1056106;28;20177;-38
2023/07/02 02:08:30;;;;;;;13.65;6.85;;;;;;;14.55;100.00;100529.75;1056476;28;20118;-37
2023/07/02 02:09:03;;;;;;;10.77;5.70;;;;;;;14.50;100.00;100533.16;1056567;28;20032;-39
2023/07/02 02:09:34;;;;;;;13.20;5.55;;;;;;;14.50;100.00;100527.81;1056206;28;20040;-38
2023/07/02 02:10:10;;;;;;;10.00;4.65;;;;;;;14.56;100.00;100525.22;1055980;28;20051;-38
2023/07/02 02:10:41;;;;;;;14.05;5.82;;;;;;;14.57;100.00;100526.84;1051480;28;20137;-38
2023/07/02 02:11:13;;;;;;;17.05;6.78;;;;;;;14.51;100.00;100524.06;1049614;28;20088;-37
2023/07/02 02:11:48;;;;;;;10.13;5.47;;;;;;;14.49;100.00;100526.19;1052728;28;20044;-37
2023/07/02 02:12:20;;;;;;;12.77;5.20;;;;;;;14.53;100.00;100521.97;1052353;28;20091;-37
2023/07/02 02:12:51;;;;;;;10.02;5.15;;;;;;;14.53;100.00;100529.22;1052556;28;20048;-38
2023/07/02 02:13:23;;;;;;;9.07;5.05;;;;;;;14.56;100.00;100530.56;1051646;28;20047;-38
2023/07/02 02:13:54;;;;;;;9.85;5.50;;;;;;;14.55;100.00;100523.59;1051970;28;20044;-38
2023/07/02 02:14:26;;;;;;;11.50;5.65;;;;;;;14.57;100.00;100526.84;1056074;28;20035;-38
2023/07/02 02:14:58;;;;;;;9.25;5.10;;;;;;;14.46;100.00;100520.53;1056128;28;20096;-37
2023/07/02 02:15:29;;;;;;;13.93;6.18;;;;;;;14.50;100.00;100521.63;1060260;28;20035;-37
2023/07/02 02:16:01;;;;;;;9.35;5.40;;;;;;;14.48;100.00;100521.88;1060749;27;20042;-38
2023/07/02 02:16:33;;;;;;;10.80;4.78;;;;;;;14.39;100.00;100531.41;1060432;27;20125;-37
2023/07/02 02:17:06;;;;;;;8.48;5.82;;;;;;;14.49;100.00;100518.16;1060073;28;20113;-37
2023/07/02 02:17:38;;;;;;;10.35;5.20;;;;;;;14.50;100.00;100527.81;1059880;28;20051;-38
2023/07/02 02:18:10;;;;;;;8.82;5.30;;;;;;;14.55;100.00;100523.59;1060072;28;20046;-38
2023/07/02 02:18:41;;;;;;;14.63;5.88;;;;;;;14.53;100.00;100521.97;1060350;28;20043;-38
2023/07/02 02:19:14;;;;;;;9.48;5.43;;;;;;;14.53;100.00;100524.66;1060125;28;20058;-38
2023/07/02 02:19:46;;;;;;;10.80;5.32;;;;;;;14.50;100.00;100530.50;1060381;28;20047;-37
2023/07/02 02:20:18;;;;;;;9.10;5.65;;;;;;;14.45;100.00;100534.97;1060236;28;20039;-38
2023/07/02 02:20:50;;;;;;;6.75;4.47;;;;;;;14.40;100.00;100532.22;1056359;28;20055;-38
2023/07/02 02:21:22;;;;;;;10.02;4.93;;;;;;;14.43;100.00;100534.41;1060523;28;20397;-37
2023/07/02 02:21:53;;;;;;;11.15;5.60;;;;;;;14.45;100.00;100535.78;1055767;28;20048;-37
2023/07/02 02:22:25;;;;;;;13.63;7.07;;;;;;;14.44;100.00;100528.00;1056219;28;20074;-37
2023/07/02 02:22:57;;;;;;;14.32;5.15;;;;;;;14.35;100.00;100530.28;1060256;28;20050;-37
2023/07/02 02:23:28;;;;;;;7.47;4.80;;;;;;;14.21;100.00;100529.00;1060081;28;20035;-37
2023/07/02 02:24:00;;;;;;;9.40;4.18;;;;;;;14.35;100.00;100534.84;1060904;27;21600;-38
2023/07/02 02:24:31;;;;;;;13.35;5.55;;;;;;;14.36;100.00;100537.25;1060731;27;20048;-38
2023/07/02 02:25:03;;;;;;;11.52;5.05;;;;;;;14.43;100.00;100537.91;1060241;27;20404;-37
2023/07/02 02:25:35;;;;;;;13.85;5.50;;;;;;;14.40;100.00;100535.69;1060197;28;20074;-38
2023/07/02 02:26:07;;;;;;;17.15;5.45;;;;;;;14.38;100.00;100539.69;1060267;28;20039;-38
2023/07/02 02:26:39;;;;;;;7.88;5.00;;;;;;;14.39;100.00;100536.75;1055851;28;20039;-38
2023/07/02 02:27:11;;;;;;;11.60;6.55;;;;;;;14.44;100.00;100544.09;1056536;28;20039;-38
2023/07/02 02:27:43;;;;;;;11.98;5.47;;;;;;;14.44;100.00;100542.22;1059914;28;20039;-38
2023/07/02 02:28:15;;;;;;;13.77;5.63;;;;;;;14.19;100.00;100539.16;1056454;27;20040;-38
2023/07/02 02:28:47;;;;;;;14.68;5.97;;;;;;;14.26;100.00;100542.50;1056171;28;20984;-38